Time;durP1;ratioP1;P1;durP2;ratioP2;P2;SDS_P1;SDS_P2;PMS_P1;PMS_P2;Temp;Humidity;BMP_temperature;BMP_pressure;BME280_temperature;BME280_humidity;BME280_pressure;Samples;Min_cycle;Max_cycle;Signal;HPM_P1;HPM_P2
2023/06/01 00:00:46;;;;;;;;;;;;;;;;;;5110044;28;19919;-81
2023/06/01 00:03:12;;;;;;;;;;;;;;;;;;5109670;28;19920;-81
2023/06/01 00:05:38;;;;;;;;;;;;;;;;;;5109137;28;19920;-81
2023/06/01 00:08:04;;;;;;;;;;;;;;;;;;5110207;28;19942;-81
2023/06/01 00:10:30;;;;;;;;;;;;;;;;;;5093366;28;19923;-81
2023/06/01 00:12:56;;;;;;;;;;;;;;;;;;5109473;28;19965;-81
2023/06/01 00:15:22;;;;;;;;;;;;;;;;;;5110301;28;20419;-81
2023/06/01 00:17:51;;;;;;;;;;;;;;;;;;5085380;28;19927;-81
2023/06/01 00:20:17;;;;;;;;;;;;;;;;;;5088180;28;19926;-81
2023/06/01 00:22:43;;;;;;;;;;;;;;;;;;5117922;28;19969;-81
2023/06/01 00:25:09;;;;;;;;;;;;;;;;;;5110142;28;19924;-81
2023/06/01 00:27:35;;;;;;;;;;;;;;;;;;5109606;28;20399;-82
2023/06/01 00:30:01;;;;;;;;;;;;;;;;;;5110087;28;19963;-81
2023/06/01 00:32:27;;;;;;;;;;;;;;;;;;5109431;28;19919;-81
2023/06/01 00:34:53;;;;;;;;;;;;;;;;;;5108833;28;20206;-81
2023/06/01 00:37:19;;;;;;;;;;;;;;;;;;5092963;28;19919;-81
2023/06/01 00:39:45;;;;;;;;;;;;;;;;;;5107979;28;19962;-81
2023/06/01 00:42:11;;;;;;;;;;;;;;;;;;5095689;28;19919;-81
2023/06/01 00:44:36;;;;;;;;;;;;;;;;;;5109342;28;19924;-82
2023/06/01 00:47:03;;;;;;;;;;;;;;;;;;5109863;28;20367;-81
2023/06/01 00:49:29;;;;;;;;;;;;;;;;;;5109937;28;19920;-81
2023/06/01 00:51:55;;;;;;;;;;;;;;;;;;5113909;28;19934;-81
2023/06/01 00:54:21;;;;;;;;;;;;;;;;;;5114443;28;19920;-81
2023/06/01 00:56:47;;;;;;;;;;;;;;;;;;5113681;28;19927;-81
2023/06/01 00:59:12;;;;;;;;;;;;;;;;;;5113851;28;19919;-80
2023/06/01 01:01:41;;;;;;;;;;;;;;;;;;5113926;28;20275;-83
2023/06/01 01:04:07;;;;;;;;;;;;;;;;;;5111178;28;19932;-81
2023/06/01 01:06:33;;;;;;;;;;;;;;;;;;5108493;28;19920;-81
2023/06/01 01:08:59;;;;;;;;;;;;;;;;;;5113023;28;19924;-81
2023/06/01 01:11:25;;;;;;;;;;;;;;;;;;5113998;28;20284;-81
2023/06/01 01:13:51;;;;;;;;;;;;;;;;;;5112802;28;19924;-82
2023/06/01 01:16:17;;;;;;;;;;;;;;;;;;5093433;28;20331;-80
2023/06/01 01:18:45;;;;;;;;;;;;;;;;;;5074305;28;19936;-81
2023/06/01 01:21:28;;;;;;;;;;;;;;;;;;5110229;28;20423;-81
2023/06/01 01:23:54;;;;;;;;;;;;;;;;;;5112295;28;19927;-81
2023/06/01 01:26:21;;;;;;;;;;;;;;;;;;5113857;28;19919;-81
2023/06/01 01:28:47;;;;;;;;;;;;;;;;;;5106650;28;19991;-81
2023/06/01 01:31:13;;;;;;;;;;;;;;;;;;5093441;28;20012;-81
2023/06/01 01:33:39;;;;;;;;;;;;;;;;;;5097131;28;19954;-81
2023/06/01 01:36:05;;;;;;;;;;;;;;;;;;5109314;28;19981;-81
2023/06/01 01:38:31;;;;;;;;;;;;;;;;;;5109054;28;19920;-81
2023/06/01 01:40:57;;;;;;;;;;;;;;;;;;5109939;28;19931;-81
2023/06/01 01:43:23;;;;;;;;;;;;;;;;;;5092719;28;19971;-81
2023/06/01 01:45:49;;;;;;;;;;;;;;;;;;5092639;28;20038;-81
2023/06/01 01:48:15;;;;;;;;;;;;;;;;;;5126028;27;19920;-81
2023/06/01 01:50:41;;;;;;;;;;;;;;;;;;5091978;28;20478;-82
2023/06/01 01:53:07;;;;;;;;;;;;;;;;;;5092639;28;19984;-81
2023/06/01 01:55:33;;;;;;;;;;;;;;;;;;5093756;28;19920;-81
2023/06/01 01:58:00;;;;;;;;;;;;;;;;;;5132137;27;20060;-81
2023/06/01 02:00:26;;;;;;;;;;;;;;;;;;5091479;28;19927;-81
2023/06/01 02:02:52;;;;;;;;;;;;;;;;;;5111471;28;20452;-81
2023/06/01 02:05:18;;;;;;;;;;;;;;;;;;5111954;28;20010;-81
2023/06/01 02:07:44;;;;;;;;;;;;;;;;;;5112800;28;19926;-81
2023/06/01 02:10:10;;;;;;;;;;;;;;;;;;5112937;28;20065;-81
2023/06/01 02:12:36;;;;;;;;;;;;;;;;;;5112330;28;20424;-81
2023/06/01 02:15:02;;;;;;;;;;;;;;;;;;5095284;28;19923;-81
2023/06/01 02:17:29;;;;;;;;;;;;;;;;;;5111440;28;20689;-81
2023/06/01 02:19:55;;;;;;;;;;;;;;;;;;5111379;28;19926;-81
2023/06/01 02:22:21;;;;;;;;;;;;;;;;;;5109532;28;20368;-81
2023/06/01 02:24:47;;;;;;;;;;;;;;;;;;5112496;28;19930;-82
2023/06/01 02:27:13;;;;;;;;;;;;;;;;;;5112583;28;19931;-81
2023/06/01 02:29:39;;;;;;;;;;;;;;;;;;5111999;28;19924;-81
2023/06/01 02:32:05;;;;;;;;;;;;;;;;;;5112179;28;20361;-81
2023/06/01 02:34:31;;;;;;;;;;;;;;;;;;5109258;28;19963;-81
2023/06/01 02:36:57;;;;;;;;;;;;;;;;;;5097290;28;19931;-81
2023/06/01 02:39:23;;;;;;;;;;;;;;;;;;5106608;28;20401;-81
2023/06/01 02:41:49;;;;;;;;;;;;;;;;;;5091725;28;20385;-82
2023/06/01 02:44:15;;;;;;;;;;;;;;;;;;5091706;28;19923;-81
2023/06/01 02:46:41;;;;;;;;;;;;;;;;;;5100046;28;19928;-81
2023/06/01 02:49:07;;;;;;;;;;;;;;;;;;5109294;28;19930;-81
2023/06/01 02:51:33;;;;;;;;;;;;;;;;;;5104486;28;19924;-81
2023/06/01 02:53:59;;;;;;;;;;;;;;;;;;5094312;28;19923;-81
2023/06/01 02:56:26;;;;;;;;;;;;;;;;;;5111120;28;20665;-81
2023/06/01 02:58:52;;;;;;;;;;;;;;;;;;5111298;28;20017;-80
2023/06/01 03:01:19;;;;;;;;;;;;;;;;;;5112032;28;19926;-81
2023/06/01 03:03:46;;;;;;;;;;;;;;;;;;5110194;28;20425;-81
2023/06/01 03:06:13;;;;;;;;;;;;;;;;;;5111431;28;20006;-81
2023/06/01 03:08:39;;;;;;;;;;;;;;;;;;5094659;28;19919;-81
2023/06/01 03:11:05;;;;;;;;;;;;;;;;;;5107898;28;19926;-81
2023/06/01 03:13:31;;;;;;;;;;;;;;;;;;5110924;28;19923;-81
2023/06/01 03:15:57;;;;;;;;;;;;;;;;;;5090656;28;19927;-81
2023/06/01 03:18:23;;;;;;;;;;;;;;;;;;5073055;28;19919;-81
2023/06/01 03:20:49;;;;;;;;;;;;;;;;;;5090413;28;19974;-81
2023/06/01 03:23:15;;;;;;;;;;;;;;;;;;5110970;28;19919;-81
2023/06/01 03:25:42;;;;;;;;;;;;;;;;;;5111268;28;19924;-81
2023/06/01 03:28:08;;;;;;;;;;;;;;;;;;5110699;28;19920;-80
2023/06/01 03:30:34;;;;;;;;;;;;;;;;;;5079383;28;19967;-81
2023/06/01 03:33:00;;;;;;;;;;;;;;;;;;5106461;28;19920;-81
2023/06/01 03:35:26;;;;;;;;;;;;;;;;;;5089987;28;19927;-81
2023/06/01 03:37:52;;;;;;;;;;;;;;;;;;5090831;28;20385;-80
2023/06/01 03:40:18;;;;;;;;;;;;;;;;;;5084409;28;20000;-81
2023/06/01 03:42:44;;;;;;;;;;;;;;;;;;5090497;28;19920;-80
2023/06/01 03:45:10;;;;;;;;;;;;;;;;;;5107225;28;19920;-81
2023/06/01 03:47:36;;;;;;;;;;;;;;;;;;5089740;28;19924;-80
2023/06/01 03:50:02;;;;;;;;;;;;;;;;;;5089176;28;20373;-81
2023/06/01 03:52:28;;;;;;;;;;;;;;;;;;5090710;28;19920;-81
2023/06/01 03:54:54;;;;;;;;;;;;;;;;;;5078796;28;19942;-81
2023/06/01 03:57:20;;;;;;;;;;;;;;;;;;5089846;28;20738;-81
2023/06/01 03:59:46;;;;;;;;;;;;;;;;;;5107084;28;19924;-80
2023/06/01 04:02:12;;;;;;;;;;;;;;;;;;5073198;28;19934;-81
2023/06/01 04:04:40;;;;;;;;;;;;;;;;;;5072021;28;19946;-81
2023/06/01 04:07:06;;;;;;;;;;;;;;;;;;5073103;28;20007;-81
2023/06/01 04:09:32;;;;;;;;;;;;;;;;;;5075470;28;19971;-81
2023/06/01 04:11:58;;;;;;;;;;;;;;;;;;5090319;28;19971;-81
2023/06/01 04:14:24;;;;;;;;;;;;;;;;;;5072343;28;19928;-81
2023/06/01 04:16:50;;;;;;;;;;;;;;;;;;5090401;28;20018;-80
2023/06/01 04:19:16;;;;;;;;;;;;;;;;;;5104149;28;20003;-81
2023/06/01 04:21:43;;;;;;;;;;;;;;;;;;5102369;28;19924;-81
2023/06/01 04:24:09;;;;;;;;;;;;;;;;;;5092743;28;19920;-81
2023/06/01 04:26:36;;;;;;;;;;;;;;;;;;5110533;28;19930;-81
2023/06/01 04:29:02;;;;;;;;;;;;;;;;;;5102458;28;19928;-82
2023/06/01 04:31:29;;;;;;;;;;;;;;;;;;5093599;28;20022;-81
2023/06/01 04:33:56;;;;;;;;;;;;;;;;;;5108833;28;20006;-81
2023/06/01 04:36:22;;;;;;;;;;;;;;;;;;5107927;28;20015;-81
2023/06/01 04:38:52;;;;;;;;;;;;;;;;;;5090142;28;19967;-81
2023/06/01 04:41:20;;;;;;;;;;;;;;;;;;5106683;28;19927;-81
2023/06/01 04:43:51;;;;;;;;;;;;;;;;;;5106722;28;19924;-81
2023/06/01 04:46:17;;;;;;;;;;;;;;;;;;5106771;28;20010;-81
2023/06/01 04:48:44;;;;;;;;;;;;;;;;;;5087809;28;20016;-81
2023/06/01 04:51:10;;;;;;;;;;;;;;;;;;5108404;28;19924;-81
2023/06/01 04:53:36;;;;;;;;;;;;;;;;;;5110380;28;19924;-81
2023/06/01 04:56:02;;;;;;;;;;;;;;;;;;5091105;28;19973;-81
2023/06/01 04:58:28;;;;;;;;;;;;;;;;;;5089089;28;19923;-81
2023/06/01 05:00:54;;;;;;;;;;;;;;;;;;5089522;28;19924;-81
2023/06/01 05:03:20;;;;;;;;;;;;;;;;;;5088811;28;19924;-81
2023/06/01 05:05:46;;;;;;;;;;;;;;;;;;5088191;28;20094;-81
2023/06/01 05:08:12;;;;;;;;;;;;;;;;;;5108500;28;19950;-81
2023/06/01 05:10:38;;;;;;;;;;;;;;;;;;5108658;28;19986;-81
2023/06/01 05:13:04;;;;;;;;;;;;;;;;;;5092809;28;20024;-81
2023/06/01 05:15:30;;;;;;;;;;;;;;;;;;5123312;28;20300;-81
2023/06/01 05:17:56;;;;;;;;;;;;;;;;;;5088942;28;19924;-80
2023/06/01 05:20:22;;;;;;;;;;;;;;;;;;5088272;28;19928;-81
2023/06/01 05:22:48;;;;;;;;;;;;;;;;;;5089857;28;19947;-81
2023/06/01 05:25:14;;;;;;;;;;;;;;;;;;5094130;28;19924;-81
2023/06/01 05:27:40;;;;;;;;;;;;;;;;;;5109703;28;19924;-81
2023/06/01 05:30:06;;;;;;;;;;;;;;;;;;5100531;28;19973;-81
2023/06/01 05:32:32;;;;;;;;;;;;;;;;;;5122593;28;19935;-81
2023/06/01 05:34:58;;;;;;;;;;;;;;;;;;5088815;28;19924;-81
2023/06/01 05:37:24;;;;;;;;;;;;;;;;;;5092467;28;19986;-81
2023/06/01 05:39:50;;;;;;;;;;;;;;;;;;5093315;28;19924;-81
2023/06/01 05:42:16;;;;;;;;;;;;;;;;;;5103422;28;19923;-81
2023/06/01 05:44:42;;;;;;;;;;;;;;;;;;5113286;28;19927;-81
2023/06/01 05:47:08;;;;;;;;;;;;;;;;;;5102200;28;19926;-82
2023/06/01 05:49:34;;;;;;;;;;;;;;;;;;5095668;28;19920;-81
2023/06/01 05:52:01;;;;;;;;;;;;;;;;;;5093103;28;19928;-80
2023/06/01 05:54:27;;;;;;;;;;;;;;;;;;5092553;28;19920;-81
2023/06/01 05:56:52;;;;;;;;;;;;;;;;;;5098010;28;20268;-80
2023/06/01 05:59:18;;;;;;;;;;;;;;;;;;5110116;28;19942;-81
2023/06/01 06:01:44;;;;;;;;;;;;;;;;;;5092898;28;19927;-81
2023/06/01 06:04:10;;;;;;;;;;;;;;;;;;5090982;28;19920;-81
2023/06/01 06:06:36;;;;;;;;;;;;;;;;;;5092167;28;19930;-81
2023/06/01 06:09:04;;;;;;;;;;;;;;;;;;5092340;28;19946;-81
2023/06/01 06:11:30;;;;;;;;;;;;;;;;;;5106403;28;20377;-81
2023/06/01 06:13:56;;;;;;;;;;;;;;;;;;5111914;28;20003;-81
2023/06/01 06:16:22;;;;;;;;;;;;;;;;;;5095363;28;20018;-81
2023/06/01 06:18:48;;;;;;;;;;;;;;;;;;5109706;28;19924;-81
2023/06/01 06:21:14;;;;;;;;;;;;;;;;;;5112879;28;19926;-81
2023/06/01 06:23:40;;;;;;;;;;;;;;;;;;5095379;28;19919;-81
2023/06/01 06:26:06;;;;;;;;;;;;;;;;;;5095818;28;20014;-81
2023/06/01 06:28:32;;;;;;;;;;;;;;;;;;5107996;28;19924;-81
2023/06/01 06:30:58;;;;;;;;;;;;;;;;;;5095166;28;20018;-81
2023/06/01 06:33:24;;;;;;;;;;;;;;;;;;5110744;28;19920;-77
2023/06/01 06:35:50;;;;;;;;;;;;;;;;;;5111528;28;19924;-81
2023/06/01 06:38:16;;;;;;;;;;;;;;;;;;5109247;28;19924;-77
2023/06/01 06:40:42;;;;;;;;;;;;;;;;;;5112171;28;19934;-78
2023/06/01 06:43:08;;;;;;;;;;;;;;;;;;5112049;28;19923;-78
2023/06/01 06:45:34;;;;;;;;;;;;;;;;;;5111671;28;19927;-77
2023/06/01 06:48:00;;;;;;;;;;;;;;;;;;5112138;28;19986;-80
2023/06/01 06:50:26;;;;;;;;;;;;;;;;;;5109289;28;19963;-81
2023/06/01 06:52:53;;;;;;;;;;;;;;;;;;5093919;28;20034;-80
2023/06/01 06:55:19;;;;;;;;;;;;;;;;;;5091623;28;19920;-83
2023/06/01 06:57:45;;;;;;;;;;;;;;;;;;5097236;28;20388;-81
2023/06/01 07:00:14;;;;;;;;;;;;;;;;;;5111976;28;20368;-81
2023/06/01 07:02:40;;;;;;;;;;;;;;;;;;5110434;28;20575;-81
2023/06/01 07:05:08;;;;;;;;;;;;;;;;;;5111048;28;19920;-81
2023/06/01 07:07:34;;;;;;;;;;;;;;;;;;5111282;28;19973;-81
2023/06/01 07:10:00;;;;;;;;;;;;;;;;;;5100580;28;19924;-81
2023/06/01 07:12:26;;;;;;;;;;;;;;;;;;5098083;28;19924;-81
2023/06/01 07:14:52;;;;;;;;;;;;;;;;;;5094203;28;19930;-81
2023/06/01 07:17:18;;;;;;;;;;;;;;;;;;5092165;28;19923;-81
2023/06/01 07:19:43;;;;;;;;;;;;;;;;;;5089417;28;20389;-81
2023/06/01 07:22:09;;;;;;;;;;;;;;;;;;5102404;28;20369;-81
2023/06/01 07:24:35;;;;;;;;;;;;;;;;;;5111195;28;19930;-81
2023/06/01 07:27:01;;;;;;;;;;;;;;;;;;5111382;28;19969;-81
2023/06/01 07:29:27;;;;;;;;;;;;;;;;;;5110353;28;19966;-81
2023/06/01 07:31:53;;;;;;;;;;;;;;;;;;5094659;28;19967;-81
2023/06/01 07:34:19;;;;;;;;;;;;;;;;;;5107979;28;19965;-81
2023/06/01 07:36:45;;;;;;;;;;;;;;;;;;5101982;28;19968;-81
2023/06/01 07:39:11;;;;;;;;;;;;;;;;;;5111235;28;19943;-80
2023/06/01 07:41:39;;;;;;;;;;;;;;;;;;5110467;28;19923;-83
2023/06/01 07:44:05;;;;;;;;;;;;;;;;;;5110812;28;19919;-84
2023/06/01 07:46:31;;;;;;;;;;;;;;;;;;5093687;28;19920;-84
2023/06/01 07:48:58;;;;;;;;;;;;;;;;;;5109029;28;19919;-85
2023/06/01 07:51:24;;;;;;;;;;;;;;;;;;5111178;28;20026;-79
2023/06/01 07:53:50;;;;;;;;;;;;;;;;;;5111145;28;20034;-84
2023/06/01 07:56:16;;;;;;;;;;;;;;;;;;5093558;28;19920;-84
2023/06/01 07:58:44;;;;;;;;;;;;;;;;;;5101258;28;19924;-81
2023/06/01 08:01:10;;;;;;;;;;;;;;;;;;5107892;28;19957;-82
2023/06/01 08:03:36;;;;;;;;;;;;;;;;;;5126262;27;19930;-82
2023/06/01 08:06:04;;;;;;;;;;;;;;;;;;5089033;28;19924;-82
2023/06/01 08:08:30;;;;;;;;;;;;;;;;;;5096818;28;19930;-82
2023/06/01 08:10:56;;;;;;;;;;;;;;;;;;5097913;28;19919;-82
2023/06/01 08:13:25;;;;;;;;;;;;;;;;;;5088326;28;19935;-81
2023/06/01 08:15:52;;;;;;;;;;;;;;;;;;5123385;27;20007;-81
2023/06/01 08:18:19;;;;;;;;;;;;;;;;;;5133646;27;19920;-80
2023/06/01 08:20:45;;;;;;;;;;;;;;;;;;5072726;28;20127;-81
2023/06/01 08:23:11;;;;;;;;;;;;;;;;;;5129215;27;20274;-81
2023/06/01 08:25:37;;;;;;;;;;;;;;;;;;5088907;28;20006;-81
2023/06/01 08:28:03;;;;;;;;;;;;;;;;;;5088379;28;20376;-82
2023/06/01 08:30:29;;;;;;;;;;;;;;;;;;5091954;28;19971;-81
2023/06/01 08:32:55;;;;;;;;;;;;;;;;;;5100043;28;20373;-79
2023/06/01 08:35:21;;;;;;;;;;;;;;;;;;5122082;27;19924;-80
2023/06/01 08:37:47;;;;;;;;;;;;;;;;;;5089048;28;20006;-79
2023/06/01 08:40:14;;;;;;;;;;;;;;;;;;5101815;28;19930;-80
2023/06/01 08:42:40;;;;;;;;;;;;;;;;;;5085739;28;19930;-82
2023/06/01 08:45:06;;;;;;;;;;;;;;;;;;5101959;28;19923;-82
2023/06/01 08:47:32;;;;;;;;;;;;;;;;;;5108545;28;19931;-82
2023/06/01 08:49:58;;;;;;;;;;;;;;;;;;5090774;28;19977;-82
2023/06/01 08:52:24;;;;;;;;;;;;;;;;;;5106704;28;19928;-82
2023/06/01 08:54:50;;;;;;;;;;;;;;;;;;5091889;28;19963;-83
2023/06/01 08:57:16;;;;;;;;;;;;;;;;;;5100533;28;19970;-83
2023/06/01 08:59:41;;;;;;;;;;;;;;;;;;5105514;28;19944;-83
2023/06/01 09:02:07;;;;;;;;;;;;;;;;;;5097321;28;19924;-82
2023/06/01 09:04:41;;;;;;;;;;;;;;;;;;5121574;28;19971;-82
2023/06/01 09:07:07;;;;;;;;;;;;;;;;;;5101995;28;19968;-82
2023/06/01 09:09:33;;;;;;;;;;;;;;;;;;5109782;28;19924;-83
2023/06/01 09:12:00;;;;;;;;;;;;;;;;;;5113967;28;19988;-83
2023/06/01 09:14:26;;;;;;;;;;;;;;;;;;5095354;28;19967;-82
2023/06/01 09:16:52;;;;;;;;;;;;;;;;;;5106415;28;19928;-82
2023/06/01 09:19:22;;;;;;;;;;;;;;;;;;5106397;28;19924;-82
2023/06/01 09:21:48;;;;;;;;;;;;;;;;;;5140701;27;19930;-82
2023/06/01 09:24:13;;;;;;;;;;;;;;;;;;5096642;28;19924;-82
2023/06/01 09:26:39;;;;;;;;;;;;;;;;;;5106108;28;19962;-84
2023/06/01 09:29:06;;;;;;;;;;;;;;;;;;5113051;28;19930;-83
2023/06/01 09:31:32;;;;;;;;;;;;;;;;;;5096224;28;19923;-78
2023/06/01 09:33:58;;;;;;;;;;;;;;;;;;5097513;28;19926;-81
2023/06/01 09:36:25;;;;;;;;;;;;;;;;;;5083211;28;19920;-86
2023/06/01 09:38:51;;;;;;;;;;;;;;;;;;5111860;28;20373;-88
2023/06/01 09:41:17;;;;;;;;;;;;;;;;;;5095869;28;19969;-86
2023/06/01 09:43:43;;;;;;;;;;;;;;;;;;5101055;28;20370;-85
2023/06/01 09:46:09;;;;;;;;;;;;;;;;;;5113366;28;19943;-83
2023/06/01 09:48:36;;;;;;;;;;;;;;;;;;5111508;28;20114;-83
2023/06/01 09:51:02;;;;;;;;;;;;;;;;;;5111880;28;19972;-82
2023/06/01 09:53:28;;;;;;;;;;;;;;;;;;5112734;28;19927;-83
2023/06/01 09:55:54;;;;;;;;;;;;;;;;;;5103982;28;19924;-83
2023/06/01 09:58:20;;;;;;;;;;;;;;;;;;5096021;28;19931;-82
2023/06/01 10:00:46;;;;;;;;;;;;;;;;;;5137874;27;19924;-83
2023/06/01 10:03:12;;;;;;;;;;;;;;;;;;5095154;28;19980;-84
2023/06/01 10:05:38;;;;;;;;;;;;;;;;;;5111751;28;19923;-84
2023/06/01 10:08:04;;;;;;;;;;;;;;;;;;5107562;28;19927;-87
2023/06/01 10:10:30;;;;;;;;;;;;;;;;;;5112015;28;19934;-82
2023/06/01 10:12:56;;;;;;;;;;;;;;;;;;5101745;28;19929;-83
2023/06/01 10:15:22;;;;;;;;;;;;;;;;;;5111288;28;20063;-83
2023/06/01 10:17:48;;;;;;;;;;;;;;;;;;5110434;28;19951;-82
2023/06/01 10:20:14;;;;;;;;;;;;;;;;;;5110786;28;19923;-83
2023/06/01 10:22:40;;;;;;;;;;;;;;;;;;5110649;28;19927;-83
2023/06/01 10:25:06;;;;;;;;;;;;;;;;;;5102631;28;20360;-83
2023/06/01 10:27:32;;;;;;;;;;;;;;;;;;5108672;28;20324;-84
2023/06/01 10:29:58;;;;;;;;;;;;;;;;;;5110640;28;20011;-83
2023/06/01 10:32:24;;;;;;;;;;;;;;;;;;5111093;28;20269;-83
2023/06/01 10:34:50;;;;;;;;;;;;;;;;;;5110834;28;19943;-83
2023/06/01 10:37:16;;;;;;;;;;;;;;;;;;5111615;28;20050;-82
2023/06/01 10:39:42;;;;;;;;;;;;;;;;;;5111528;28;19970;-83
2023/06/01 10:42:08;;;;;;;;;;;;;;;;;;5094509;28;19977;-82
2023/06/01 10:44:34;;;;;;;;;;;;;;;;;;5111317;28;19924;-83
2023/06/01 10:47:00;;;;;;;;;;;;;;;;;;5111090;28;20010;-82
2023/06/01 10:49:26;;;;;;;;;;;;;;;;;;5108381;28;19927;-84
2023/06/01 10:51:51;;;;;;;;;;;;;;;;;;5109996;28;19924;-83
2023/06/01 10:54:17;;;;;;;;;;;;;;;;;;5110941;28;19924;-82
2023/06/01 10:56:43;;;;;;;;;;;;;;;;;;5094036;28;19923;-82
2023/06/01 10:59:09;;;;;;;;;;;;;;;;;;5109883;28;19930;-83
2023/06/01 11:01:35;;;;;;;;;;;;;;;;;;5093749;28;20368;-83
2023/06/01 11:04:01;;;;;;;;;;;;;;;;;;5091623;28;19923;-84
2023/06/01 11:06:27;;;;;;;;;;;;;;;;;;5101253;28;19931;-82
2023/06/01 11:08:53;;;;;;;;;;;;;;;;;;5108603;28;19924;-81
2023/06/01 11:11:20;;;;;;;;;;;;;;;;;;5100316;27;20295;-81
2023/06/01 11:13:49;;;;;;;;;;;;;;;;;;5108194;28;19927;-81
2023/06/01 11:16:21;;;;;;;;;;;;;;;;;;5094195;28;19930;-81
2023/06/01 11:18:49;;;;;;;;;;;;;;;;;;5092274;28;19931;-84
2023/06/01 11:21:16;;;;;;;;;;;;;;;;;;5091488;28;19924;-82
2023/06/01 11:23:42;;;;;;;;;;;;;;;;;;5094162;28;20032;-82
2023/06/01 11:26:08;;;;;;;;;;;;;;;;;;5111103;28;19920;-81
2023/06/01 11:28:34;;;;;;;;;;;;;;;;;;5089843;28;20377;-81
2023/06/01 11:31:00;;;;;;;;;;;;;;;;;;5088460;28;19973;-81
2023/06/01 11:33:26;;;;;;;;;;;;;;;;;;5107918;28;19931;-82
2023/06/01 11:35:52;;;;;;;;;;;;;;;;;;5093109;28;19962;-81
2023/06/01 11:38:17;;;;;;;;;;;;;;;;;;5093905;28;19970;-81
2023/06/01 11:40:43;;;;;;;;;;;;;;;;;;5090920;28;19924;-82
2023/06/01 11:43:09;;;;;;;;;;;;;;;;;;5088770;28;19924;-82
2023/06/01 11:45:35;;;;;;;;;;;;;;;;;;5110285;28;19927;-81
2023/06/01 11:48:01;;;;;;;;;;;;;;;;;;5092533;28;19970;-82
2023/06/01 11:50:29;;;;;;;;;;;;;;;;;;5109999;28;20005;-82
2023/06/01 11:52:55;;;;;;;;;;;;;;;;;;5106633;28;19920;-82
2023/06/01 11:55:21;;;;;;;;;;;;;;;;;;5095546;28;20361;-83
2023/06/01 11:57:47;;;;;;;;;;;;;;;;;;5110708;28;19920;-82
2023/06/01 12:00:13;;;;;;;;;;;;;;;;;;5110090;28;20129;-82
2023/06/01 12:02:41;;;;;;;;;;;;;;;;;;5109751;28;19933;-82
2023/06/01 12:05:13;;;;;;;;;;;;;;;;;;5092258;28;19942;-82
2023/06/01 12:07:39;;;;;;;;;;;;;;;;;;5093723;28;19919;-82
2023/06/01 12:10:06;;;;;;;;;;;;;;;;;;5092554;28;19919;-82
2023/06/01 12:12:33;;;;;;;;;;;;;;;;;;5107319;28;19958;-82
2023/06/01 12:14:59;;;;;;;;;;;;;;;;;;5084354;28;19924;-82
2023/06/01 12:17:25;;;;;;;;;;;;;;;;;;5106219;28;19930;-82
2023/06/01 12:19:51;;;;;;;;;;;;;;;;;;5092448;28;19924;-82
2023/06/01 12:22:17;;;;;;;;;;;;;;;;;;5093933;28;19927;-78
2023/06/01 12:24:46;;;;;;;;;;;;;;;;;;5093756;28;19923;-81
2023/06/01 12:27:13;;;;;;;;;;;;;;;;;;5109670;28;19934;-83
2023/06/01 12:29:41;;;;;;;;;;;;;;;;;;5106874;28;19919;-84
2023/06/01 12:32:07;;;;;;;;;;;;;;;;;;5090837;28;19970;-83
2023/06/01 12:34:33;;;;;;;;;;;;;;;;;;5087356;28;19927;-83
2023/06/01 12:36:59;;;;;;;;;;;;;;;;;;5099240;28;20050;-84
2023/06/01 12:39:25;;;;;;;;;;;;;;;;;;5090258;28;20326;-82
2023/06/01 12:41:51;;;;;;;;;;;;;;;;;;5091786;28;19985;-83
2023/06/01 12:44:17;;;;;;;;;;;;;;;;;;5089651;28;20412;-83
2023/06/01 12:46:43;;;;;;;;;;;;;;;;;;5104602;28;19924;-83
2023/06/01 12:49:09;;;;;;;;;;;;;;;;;;5111561;28;19930;-83
2023/06/01 12:51:36;;;;;;;;;;;;;;;;;;5097637;28;19925;-83
2023/06/01 12:54:02;;;;;;;;;;;;;;;;;;5114219;28;19919;-83
2023/06/01 12:56:28;;;;;;;;;;;;;;;;;;5114095;28;19920;-82
2023/06/01 12:58:54;;;;;;;;;;;;;;;;;;5113820;28;19983;-83
2023/06/01 13:01:20;;;;;;;;;;;;;;;;;;5111054;28;20561;-83
2023/06/01 13:03:46;;;;;;;;;;;;;;;;;;5090669;28;20028;-83
2023/06/01 13:06:12;;;;;;;;;;;;;;;;;;5102931;28;20533;-86
2023/06/01 13:08:38;;;;;;;;;;;;;;;;;;5093780;28;19920;-83
2023/06/01 13:11:04;;;;;;;;;;;;;;;;;;5079427;28;19927;-84
2023/06/01 13:13:30;;;;;;;;;;;;;;;;;;5113246;28;19967;-83
2023/06/01 13:15:56;;;;;;;;;;;;;;;;;;5113997;28;19919;-84
2023/06/01 13:18:22;;;;;;;;;;;;;;;;;;5110789;28;20345;-84
2023/06/01 13:20:48;;;;;;;;;;;;;;;;;;5094467;28;20454;-83
2023/06/01 13:23:14;;;;;;;;;;;;;;;;;;5112704;28;19920;-83
2023/06/01 13:25:40;;;;;;;;;;;;;;;;;;5097460;28;20049;-83
2023/06/01 13:28:07;;;;;;;;;;;;;;;;;;5104051;28;19920;-84
2023/06/01 13:30:33;;;;;;;;;;;;;;;;;;5095382;28;20012;-82
2023/06/01 13:32:59;;;;;;;;;;;;;;;;;;5105838;28;19985;-82
2023/06/01 13:35:25;;;;;;;;;;;;;;;;;;5104344;28;19915;-83
2023/06/01 13:37:52;;;;;;;;;;;;;;;;;;5127500;27;19924;-82
2023/06/01 13:40:18;;;;;;;;;;;;;;;;;;5094390;28;20011;-83
2023/06/01 13:42:44;;;;;;;;;;;;;;;;;;5106282;28;20272;-85
2023/06/01 13:45:10;;;;;;;;;;;;;;;;;;5110189;27;19924;-83
2023/06/01 13:47:36;;;;;;;;;;;;;;;;;;5092459;28;20469;-84
2023/06/01 13:50:03;;;;;;;;;;;;;;;;;;5108951;28;20419;-82
2023/06/01 13:52:29;;;;;;;;;;;;;;;;;;5112071;28;19919;-82
2023/06/01 13:54:55;;;;;;;;;;;;;;;;;;5092992;28;20430;-83
2023/06/01 13:57:22;;;;;;;;;;;;;;;;;;5104710;28;19965;-82
2023/06/01 13:59:48;;;;;;;;;;;;;;;;;;5113208;28;19923;-82
2023/06/01 14:02:14;;;;;;;;;;;;;;;;;;5110987;28;19930;-82
2023/06/01 14:04:40;;;;;;;;;;;;;;;;;;5096746;28;19924;-82
2023/06/01 14:07:05;;;;;;;;;;;;;;;;;;5099271;28;19920;-82
2023/06/01 14:09:31;;;;;;;;;;;;;;;;;;5092077;28;19931;-82
2023/06/01 14:11:57;;;;;;;;;;;;;;;;;;5092600;28;19923;-83
2023/06/01 14:14:23;;;;;;;;;;;;;;;;;;5091000;28;19920;-82
2023/06/01 14:16:50;;;;;;;;;;;;;;;;;;5096832;28;19979;-82
2023/06/01 14:19:16;;;;;;;;;;;;;;;;;;5090139;28;19924;-82
2023/06/01 14:21:41;;;;;;;;;;;;;;;;;;5092601;28;19924;-82
2023/06/01 14:24:07;;;;;;;;;;;;;;;;;;5098794;28;19923;-82
2023/06/01 14:26:33;;;;;;;;;;;;;;;;;;5111889;28;19930;-84
2023/06/01 14:28:59;;;;;;;;;;;;;;;;;;5110564;28;19924;-82
2023/06/01 14:31:25;;;;;;;;;;;;;;;;;;5091998;28;20359;-82
2023/06/01 14:33:51;;;;;;;;;;;;;;;;;;5106114;28;19931;-82
2023/06/01 14:36:19;;;;;;;;;;;;;;;;;;5111999;28;19924;-82
2023/06/01 14:38:45;;;;;;;;;;;;;;;;;;5109377;28;19927;-82
2023/06/01 14:41:11;;;;;;;;;;;;;;;;;;5109412;28;19927;-83
2023/06/01 14:43:39;;;;;;;;;;;;;;;;;;5091548;28;19927;-82
2023/06/01 14:46:04;;;;;;;;;;;;;;;;;;5102538;28;19963;-83
2023/06/01 14:48:30;;;;;;;;;;;;;;;;;;5110229;28;20415;-83
2023/06/01 14:50:56;;;;;;;;;;;;;;;;;;5110014;28;20361;-82
2023/06/01 14:53:22;;;;;;;;;;;;;;;;;;5120404;27;19927;-82
2023/06/01 14:55:48;;;;;;;;;;;;;;;;;;5112279;28;19923;-82
2023/06/01 14:58:14;;;;;;;;;;;;;;;;;;5108247;28;19928;-83
2023/06/01 15:00:40;;;;;;;;;;;;;;;;;;5092512;28;19967;-83
2023/06/01 15:03:09;;;;;;;;;;;;;;;;;;5130826;27;19971;-83
2023/06/01 15:05:35;;;;;;;;;;;;;;;;;;5109644;28;20476;-84
2023/06/01 15:08:01;;;;;;;;;;;;;;;;;;5111480;28;19924;-82
2023/06/01 15:10:27;;;;;;;;;;;;;;;;;;5106439;28;20368;-82
2023/06/01 15:12:53;;;;;;;;;;;;;;;;;;5097821;28;19930;-82
2023/06/01 15:15:20;;;;;;;;;;;;;;;;;;5110296;28;19923;-83
2023/06/01 15:17:46;;;;;;;;;;;;;;;;;;5093327;28;19947;-83
2023/06/01 15:20:12;;;;;;;;;;;;;;;;;;5093147;28;20046;-81
2023/06/01 15:22:38;;;;;;;;;;;;;;;;;;5110651;28;19926;-82
2023/06/01 15:25:04;;;;;;;;;;;;;;;;;;5111904;28;19920;-83
2023/06/01 15:27:30;;;;;;;;;;;;;;;;;;5091044;28;19927;-86
2023/06/01 15:29:56;;;;;;;;;;;;;;;;;;5111791;28;20056;-82
2023/06/01 15:32:22;;;;;;;;;;;;;;;;;;5103837;28;19967;-86
2023/06/01 15:34:48;;;;;;;;;;;;;;;;;;5093741;28;19927;-84
2023/06/01 15:37:14;;;;;;;;;;;;;;;;;;5099178;28;19920;-84
2023/06/01 15:39:40;;;;;;;;;;;;;;;;;;5088192;28;20019;-85
2023/06/01 15:42:06;;;;;;;;;;;;;;;;;;5095751;28;19944;-83
2023/06/01 15:44:32;;;;;;;;;;;;;;;;;;5090499;28;19926;-83
2023/06/01 15:46:58;;;;;;;;;;;;;;;;;;5096697;28;20046;-83
2023/06/01 15:49:24;;;;;;;;;;;;;;;;;;5099935;28;19939;-84
2023/06/01 15:51:50;;;;;;;;;;;;;;;;;;5089925;28;20007;-84
2023/06/01 15:54:16;;;;;;;;;;;;;;;;;;5089810;28;19933;-83
2023/06/01 15:56:42;;;;;;;;;;;;;;;;;;5104558;27;19919;-89
2023/06/01 15:59:08;;;;;;;;;;;;;;;;;;5099744;28;19920;-87
2023/06/01 16:01:34;;;;;;;;;;;;;;;;;;5089350;28;19924;-86
2023/06/01 16:04:00;;;;;;;;;;;;;;;;;;5093047;28;19919;-88
2023/06/01 16:06:26;;;;;;;;;;;;;;;;;;5094295;28;19920;-86
2023/06/01 16:08:53;;;;;;;;;;;;;;;;;;5110290;28;20034;-87
2023/06/01 16:11:19;;;;;;;;;;;;;;;;;;5101893;28;19998;-83
2023/06/01 16:13:45;;;;;;;;;;;;;;;;;;5119531;27;19920;-86
2023/06/01 16:16:11;;;;;;;;;;;;;;;;;;5090770;28;20426;-87
2023/06/01 16:18:37;;;;;;;;;;;;;;;;;;5082564;28;19920;-91
2023/06/01 16:21:03;;;;;;;;;;;;;;;;;;5104436;28;20028;-85
2023/06/01 16:23:29;;;;;;;;;;;;;;;;;;5090527;28;20292;-86
2023/06/01 16:25:55;;;;;;;;;;;;;;;;;;5089427;28;19951;-87
2023/06/01 16:28:20;;;;;;;;;;;;;;;;;;5106016;28;19927;-86
2023/06/01 16:30:46;;;;;;;;;;;;;;;;;;5088956;28;21217;-86
2023/06/01 16:33:12;;;;;;;;;;;;;;;;;;5093629;28;19968;-85
2023/06/01 16:35:38;;;;;;;;;;;;;;;;;;5091409;28;19927;-87
2023/06/01 16:38:04;;;;;;;;;;;;;;;;;;5097896;28;19919;-86